Latest Weather Observations for Yarram Airport

IDV60801

Issued at 9:32 pm EST Thursday 13 June 2024 (issued every 10 minutes, with the page automatically refreshed every 10 minutes)

About weather observations | Map of weather stations | Latest weather observations for VIC | Other Formats
Station Details ID: 085151 Name: YARRAM AIRPORT Lat: -38.56 Lon: 146.75 Height: 17.9 m
Data from the previous 72 hours. | See also: Recent months at Yarram Airport
Date/Time
EST
Temp
°C
App
Temp
°C
Dew
Point
°C
Rel
Hum
%
Delta-T
°C
Wind Press
QNH
hPa
Press
MSL
hPa
Rain since
9am
mm
Dir  Spd
km/h
Gust
km/h
Spd
kts
Gust
kts
13/09:30pm 8.0 5.8 7.7 98 0.1 NE 9 11 5 6 1022.6 1022.7 0.0
13/09:00pm 9.2 7.6 8.7 97 0.2 ENE 7 9 4 5 1022.8 1022.9 0.0
13/08:30pm 9.3 7.7 8.8 97 0.2 W 7 9 4 5 1022.9 1023.0 0.0
13/08:00pm 9.1 8.1 8.8 98 0.1 WNW 4 9 2 5 1022.8 1022.9 0.0
13/07:30pm 9.0 8.7 8.6 97 0.2 CALM 0 0 0 0 1022.7 1022.8 0.0
13/07:00pm 9.4 7.8 8.2 92 0.6 W 6 6 3 3 1022.4 1022.5 0.0
13/06:30pm 9.7 8.0 7.6 87 1.0 W 6 6 3 3 1022.2 1022.3 0.0
13/06:00pm 9.7 9.1 7.6 87 1.0 CALM 0 7 0 4 1022.1 1022.2 0.0
13/05:30pm 9.9 8.6 7.5 85 1.1 WSW 4 6 2 3 1022.0 1022.1 0.0
13/05:00pm 10.0 7.8 7.8 86 1.1 SW 9 11 5 6 1021.7 1021.8 0.0
13/04:30pm 10.5 7.9 7.6 82 1.4 SW 11 13 6 7 1021.5 1021.6 0.0
13/04:00pm 11.6 9.4 7.7 77 1.9 WSW 9 11 5 6 1021.4 1021.5 0.0
13/03:30pm 11.7 9.7 7.2 74 2.2 WSW 7 9 4 5 1021.2 1021.3 0.0
13/03:00pm 12.2 9.5 7.5 73 2.3 WNW 11 13 6 7 1021.2 1021.3 0.0
13/02:30pm 12.2 9.3 6.7 69 2.6 WSW 11 15 6 8 1020.8 1020.9 0.0
13/02:00pm 12.5 10.2 7.6 72 2.4 W 9 11 5 6 1020.7 1020.8 0.0
13/01:30pm 12.1 10.1 7.2 72 2.4 WNW 7 9 4 5 1020.6 1020.7 0.0
13/01:00pm 12.1 10.6 7.0 71 2.4 WSW 4 7 2 4 1020.7 1020.8 0.0
13/12:30pm 12.3 10.5 7.8 74 2.2 SW 7 13 4 7 1021.3 1021.4 0.0
13/12:00pm 11.7 9.7 7.0 73 2.2 WNW 7 13 4 7 1021.8 1021.9 0.0
13/11:30am 11.9 9.4 8.2 78 1.8 WNW 11 15 6 8 1022.4 1022.5 0.0
13/11:00am 11.1 7.7 7.8 80 1.6 WNW 15 17 8 9 1022.8 1022.9 0.0
13/10:30am 11.0 8.4 7.9 81 1.5 WNW 11 13 6 7 1023.1 1023.2 0.0
13/10:00am 10.4 7.5 8.2 86 1.1 WNW 13 17 7 9 1023.3 1023.4 0.0
13/09:30am 10.1 7.2 8.2 88 0.9 NW 13 15 7 8 1023.2 1023.3 0.0
13/09:00am 10.0 7.5 8.1 88 0.9 NW 11 15 6 8 1022.6 1022.7 0.0
13/08:30am 9.7 6.4 8.0 89 0.8 NW 15 19 8 10 1022.5 1022.6 0.0
13/08:00am 8.9 5.9 7.7 92 0.6 WNW 13 17 7 9 1022.1 1022.2 0.0
13/07:30am 8.6 5.9 7.5 93 0.5 WNW 11 13 6 7 1021.9 1022.0 0.0
13/07:00am 8.6 5.9 7.5 93 0.5 WNW 11 13 6 7 1021.7 1021.8 0.0
13/06:30am 8.5 6.5 7.3 92 0.6 WNW 7 9 4 5 1021.5 1021.6 0.0
13/06:00am 8.6 6.3 7.4 92 0.6 NW 9 11 5 6 1021.2 1021.3 0.0
13/05:30am 8.8 6.5 7.4 91 0.7 WNW 9 11 5 6 1021.2 1021.3 0.0
13/05:00am 8.9 6.5 7.2 89 0.8 NW 9 11 5 6 1020.9 1021.0 0.0
13/04:30am 9.0 6.3 7.3 89 0.8 WNW 11 15 6 8 1021.1 1021.2 0.0
13/04:00am 8.9 5.8 7.2 89 0.8 WNW 13 17 7 9 1021.0 1021.1 0.0
13/03:30am 8.9 5.7 6.9 87 0.9 WNW 13 17 7 9 1021.4 1021.5 0.0
13/03:00am 9.0 5.8 7.0 87 0.9 WNW 13 15 7 8 1021.5 1021.6 0.0
13/02:30am 9.0 5.1 7.0 87 0.9 NW 17 20 9 11 1021.5 1021.6 0.0
13/02:00am 8.8 5.3 7.3 90 0.7 WNW 15 19 8 10 1021.4 1021.5 0.0
13/01:30am 8.9 5.7 7.0 88 0.9 W 13 17 7 9 1021.4 1021.5 0.0
13/01:00am 9.2 5.7 7.0 86 1.0 WSW 15 19 8 10 1021.7 1021.8 0.0
13/12:30am 9.6 5.2 6.5 81 1.4 W 19 20 10 11 1021.6 1021.7 0.0
13/12:00am 9.6 6.3 6.5 81 1.4 W 13 19 7 10 1021.5 1021.6 0.0
 
Date/Time
EST
Temp
°C
App
Temp
°C
Dew
Point
°C
Rel
Hum
%
Delta-T
°C
Wind Press
QNH
hPa
Press
MSL
hPa
Rain since
9am
mm
Dir  Spd
km/h
Gust
km/h
Spd
kts
Gust
kts
12/11:30pm 9.6 6.0 6.7 82 1.4 W 15 19 8 10 1021.3 1021.4 0.0
12/11:00pm 9.4 5.8 6.8 84 1.2 W 15 19 8 10 1021.1 1021.2 0.0
12/10:30pm 9.5 6.7 6.8 83 1.3 W 11 15 6 8 1021.4 1021.5 0.0
12/10:00pm 9.3 5.6 6.4 82 1.3 W 15 17 8 9 1021.1 1021.2 0.0
12/09:30pm 9.4 6.0 6.1 80 1.5 W 13 17 7 9 1020.6 1020.7 0.0
12/09:00pm 9.6 5.9 6.1 79 1.6 W 15 22 8 12 1020.7 1020.8 0.0
12/08:30pm 9.7 5.2 6.1 78 1.7 WSW 19 26 10 14 1020.4 1020.5 0.0
12/08:00pm 9.5 5.8 6.2 80 1.5 W 15 26 8 14 1020.4 1020.5 0.0
12/07:30pm 10.1 5.9 5.9 75 1.9 WSW 17 30 9 16 1020.3 1020.4 0.0
12/07:00pm 10.0 5.8 5.6 74 2.0 WSW 17 22 9 12 1019.9 1020.0 0.0
12/06:30pm 9.3 4.4 5.3 76 1.8 WSW 20 24 11 13 1019.2 1019.3 0.0
12/06:00pm 9.6 5.5 6.0 78 1.7 WSW 17 24 9 13 1019.1 1019.2 0.0
12/05:30pm 9.5 5.3 5.7 77 1.7 WSW 17 20 9 11 1018.7 1018.8 0.0
12/05:00pm 10.0 5.4 5.8 75 1.9 WSW 19 26 10 14 1018.3 1018.4 0.0
12/04:30pm 10.3 4.4 5.9 74 2.0 WSW 26 35 14 19 1018.1 1018.2 0.0
12/04:00pm 10.1 4.0 6.6 79 1.6 WSW 28 39 15 21 1017.8 1017.9 0.0
12/03:30pm 10.8 4.6 6.0 72 2.2 WSW 28 37 15 20 1017.3 1017.4 0.0
12/03:00pm 11.4 4.7 5.7 68 2.6 WSW 30 43 16 23 1016.8 1016.9 0.0
12/02:30pm 11.3 4.6 5.8 69 2.6 SW 30 44 16 24 1016.3 1016.4 0.0
12/02:04pm 10.9 3.3 5.7 70 2.4 WSW 35 56 19 30 1016.0 1016.1 0.0
12/02:00pm 11.3 4.0 5.4 67 2.7 WSW 33 44 18 24 1015.9 1016.0 0.0
12/01:30pm 10.4 3.0 6.7 78 1.7 WSW 35 46 19 25 1015.6 1015.7 0.0
12/01:00pm 12.3 5.1 5.7 64 3.1 WSW 33 44 18 24 1015.0 1015.1 0.0
12/12:30pm 11.1 4.6 6.3 72 2.3 WSW 30 41 16 22 1015.1 1015.2 0.0
12/12:00pm 10.4 2.7 5.2 70 2.4 WSW 35 44 19 24 1014.9 1015.0 0.0
12/11:30am 11.9 4.2 5.3 64 3.0 SW 35 46 19 25 1014.8 1014.9 0.0
12/11:00am 11.4 3.1 4.2 61 3.2 SW 37 54 20 29 1014.6 1014.7 0.0
12/10:55am 11.3 3.4 4.3 62 3.1 SW 35 54 19 29 1014.5 1014.6 0.0
12/10:30am 11.3 4.9 5.2 66 2.8 SW 28 37 15 20 1014.5 1014.6 0.0
12/10:00am 10.9 5.3 5.2 68 2.6 WSW 24 35 13 19 1013.9 1014.0 0.0
12/09:30am 9.8 3.9 6.0 77 1.8 SW 26 35 14 19 1013.4 1013.5 0.0
12/09:00am 9.3 4.8 5.9 79 1.6 WSW 19 30 10 16 1012.8 1012.9 12.6
12/08:31am 9.4 2.8 5.9 79 1.6 WSW 30 48 16 26 1012.2 1012.3 12.6
12/08:30am 9.2 3.0 6.3 82 1.3 WSW 28 33 15 18 1012.2 1012.3 12.6
12/08:00am 8.3 0.5 5.1 80 1.4 WSW 35 52 19 28 1011.7 1011.8 12.6
12/07:44am 8.9 1.4 4.7 75 1.9 WSW 33 56 18 30 1011.3 1011.4 12.6
12/07:30am 8.4 1.5 4.8 78 1.6 SW 30 39 16 21 1011.0 1011.1 12.6
12/07:00am 8.8 1.5 5.5 80 1.5 SW 33 48 18 26 1010.0 1010.0 12.6
12/06:31am 8.7 1.4 7.0 89 0.8 WSW 35 54 19 29 1009.2 1009.2 12.6
12/06:30am 8.6 1.2 6.9 89 0.8 WSW 35 44 19 24 1009.1 1009.1 12.6
12/06:00am 8.6 0.9 7.1 90 0.7 SW 37 52 20 28 1008.4 1008.4 12.4
12/05:46am 9.0 3.4 8.7 98 0.1 WSW 28 56 15 30 1007.9 1007.9 12.4
12/05:30am 9.1 2.8 8.8 98 0.1 WSW 32 44 17 24 1007.3 1007.3 12.0
12/05:00am 8.9 2.6 8.8 99 0.0 WSW 32 48 17 26 1006.2 1006.2 10.6
12/04:44am 9.2 0.1 8.4 95 0.4 WSW 46 72 25 39 1006.1 1006.1 10.2
12/04:39am 9.6 0.9 8.5 93 0.5 WSW 44 72 24 39 1006.1 1006.1 10.0
12/04:30am 10.3 2.7 9.1 92 0.6 W 39 65 21 35 1005.1 1005.1 9.4
12/04:19am 10.5 3.1 8.4 87 1.0 W 37 61 20 33 1004.5 1004.5 8.8
12/04:00am 10.8 5.0 8.0 83 1.4 W 28 37 15 20 1004.2 1004.2 8.8
12/03:30am 10.9 4.8 8.3 84 1.3 W 30 43 16 23 1004.4 1004.4 8.8
12/03:00am 10.6 4.6 8.5 87 1.0 WNW 30 43 16 23 1004.6 1004.6 8.6
12/02:30am 10.3 4.8 9.1 92 0.6 W 28 39 15 21 1004.9 1004.9 8.6
12/02:00am 9.7 4.8 8.6 93 0.5 WNW 24 32 13 17 1005.0 1005.0 8.6
12/01:30am 10.5 4.4 9.7 95 0.4 W 32 46 17 25 1005.5 1005.5 7.6
12/01:00am 10.8 5.2 10.0 95 0.4 WSW 30 41 16 22 1005.3 1005.3 5.8
12/12:30am 11.4 7.1 9.3 87 1.1 W 22 50 12 27 1005.1 1005.1 5.0
12/12:01am 11.4 5.1 9.0 85 1.2 W 32 50 17 27 1005.5 1005.5 5.0
12/12:00am 11.6 5.1 9.0 84 1.3 W 33 50 18 27 1005.5 1005.5 5.0
 
Date/Time
EST
Temp
°C
App
Temp
°C
Dew
Point
°C
Rel
Hum
%
Delta-T
°C
Wind Press
QNH
hPa
Press
MSL
hPa
Rain since
9am
mm
Dir  Spd
km/h
Gust
km/h
Spd
kts
Gust
kts
11/11:52pm 11.8 5.4 8.6 81 1.6 W 32 50 17 27 1005.5 1005.5 5.0
11/11:30pm 11.5 5.0 8.2 80 1.6 W 32 44 17 24 1005.2 1005.2 5.0
11/11:00pm 11.8 5.2 10.0 89 0.9 W 35 50 19 27 1005.2 1005.2 5.0
11/10:33pm 12.3 5.9 9.5 83 1.4 W 33 57 18 31 1005.1 1005.1 4.8
11/10:30pm 12.3 6.1 9.3 82 1.5 W 32 46 17 25 1005.1 1005.1 4.8
11/10:02pm 12.8 5.5 8.7 76 2.1 WNW 37 57 20 31 1004.6 1004.6 4.6
11/10:00pm 12.6 5.3 8.7 77 2.0 WNW 37 50 20 27 1004.8 1004.8 4.6
11/09:30pm 13.0 5.2 8.1 72 2.4 WNW 39 57 21 31 1004.6 1004.6 4.6
11/09:09pm 13.1 6.4 8.0 71 2.5 WNW 33 54 18 29 1004.6 1004.6 4.6
11/09:00pm 13.1 5.6 8.0 71 2.5 WNW 37 52 20 28 1004.7 1004.7 4.6
11/08:30pm 12.9 5.7 7.8 71 2.5 WNW 35 46 19 25 1004.7 1004.7 4.6
11/08:04pm 12.9 5.7 7.6 70 2.6 WNW 35 54 19 29 1005.0 1005.0 4.6
11/08:00pm 12.9 5.7 7.6 70 2.6 WNW 35 50 19 27 1005.1 1005.1 4.6
11/07:30pm 12.2 6.8 7.9 75 2.1 WNW 26 43 14 23 1005.4 1005.4 4.6
11/07:00pm 11.5 6.4 7.8 78 1.8 WNW 24 35 13 19 1005.8 1005.8 4.6
11/06:30pm 11.8 6.3 7.7 76 2.0 WNW 26 35 14 19 1005.8 1005.8 4.6
11/06:00pm 12.4 5.8 7.9 74 2.2 WNW 32 43 17 23 1005.5 1005.5 4.6
11/05:30pm 12.3 6.6 8.4 77 1.9 WNW 28 46 15 25 1005.3 1005.3 4.6
11/05:00pm 12.2 8.2 9.2 82 1.5 WNW 20 30 11 16 1005.0 1005.0 4.6
11/04:30pm 12.3 7.3 9.7 84 1.3 NW 26 37 14 20 1005.0 1005.0 4.6
11/04:00pm 11.8 8.4 10.7 93 0.6 W 19 32 10 17 1005.6 1005.6 4.4
11/03:30pm 13.5 7.2 8.8 73 2.4 NW 32 44 17 24 1004.8 1004.8 3.0
11/03:00pm 13.8 7.7 9.8 77 2.1 NW 32 48 17 26 1004.6 1004.6 3.0
11/02:30pm 12.4 5.3 9.4 82 1.5 NW 37 54 20 29 1004.0 1004.0 3.0
11/02:15pm 12.4 7.3 10.5 88 1.0 NW 28 44 15 24 1004.5 1004.5 2.8
11/02:00pm 12.1 4.6 9.3 83 1.4 WNW 39 52 21 28 1005.0 1005.0 2.8
11/01:42pm 13.1 7.8 11.2 88 1.0 WNW 30 48 16 26 1005.4 1005.4 1.8
11/01:30pm 13.0 8.4 11.2 89 0.9 WNW 26 39 14 21 1005.2 1005.2 1.4
11/01:00pm 13.5 7.7 10.7 83 1.5 NW 32 46 17 25 1005.0 1005.0 0.2
11/12:30pm 15.0 5.3 9.1 68 3.0 NW 50 72 27 39 1004.5 1004.5 0.0
11/12:00pm 15.6 8.0 9.1 65 3.4 NW 39 57 21 31 1004.3 1004.3 0.0
11/11:47am 15.2 9.1 9.8 70 2.8 NW 32 54 17 29 1004.9 1004.9 0.0
11/11:30am 14.4 8.2 10.0 75 2.3 NNW 33 46 18 25 1004.8 1004.8 0.0
11/11:00am 14.7 6.4 9.3 70 2.8 NNW 43 74 23 40 1005.6 1005.6 0.0
11/10:30am 14.7 7.2 9.3 70 2.8 NNW 39 61 21 33 1006.5 1006.5 0.0
11/10:00am 14.6 6.6 9.0 69 2.9 NNW 41 65 22 35 1007.6 1007.6 0.0
11/09:30am 13.9 7.1 9.1 73 2.4 NW 35 56 19 30 1008.3 1008.3 0.0
11/09:23am 13.9 8.4 9.1 73 2.4 NW 28 56 15 30 1008.4 1008.4 0.0
11/09:00am 12.6 7.6 9.6 82 1.5 N 26 37 14 20 1007.7 1007.7 0.6
11/08:30am 12.0 6.1 10.4 90 0.8 N 32 39 17 21 1007.8 1007.8 0.6
11/08:00am 12.7 6.3 9.5 81 1.6 N 33 50 18 27 1007.6 1007.6 0.0
11/07:30am 13.8 5.4 8.8 72 2.5 NNW 43 61 23 33 1008.1 1008.1 0.0
11/07:00am 13.9 8.3 8.9 72 2.5 N 28 46 15 25 1008.3 1008.3 0.0
11/06:54am 14.2 8.6 8.6 69 2.8 N 28 46 15 25 1008.3 1008.3 0.0
11/06:30am 13.4 10.5 8.0 70 2.7 NE 13 20 7 11 1008.7 1008.7 0.0
11/06:00am 14.1 11.1 7.9 66 3.1 N 13 24 7 13 1009.4 1009.4 0.0
11/05:30am 13.8 9.8 8.2 69 2.8 N 19 32 10 17 1010.0 1010.0 0.0
11/05:00am 14.7 12.8 7.7 63 3.5 SW 7 20 4 11 1010.7 1010.7 0.0
11/04:30am 12.8 10.1 7.3 69 2.7 N 11 28 6 15 1011.2 1011.3 0.0
11/04:00am 12.4 9.1 6.5 67 2.8 NNE 13 20 7 11 1011.8 1011.9 0.0
11/03:30am 13.0 9.7 6.6 65 3.1 ENE 13 24 7 13 1012.2 1012.3 0.0
11/03:00am 11.6 8.6 5.9 68 2.7 NE 11 17 6 9 1012.8 1012.9 0.0
11/02:30am 10.8 8.1 5.6 70 2.4 ENE 9 13 5 7 1013.5 1013.6 0.0
11/02:00am 9.7 6.2 5.3 74 2.0 ENE 13 17 7 9 1013.6 1013.7 0.0
11/01:30am 9.8 5.4 4.6 70 2.3 NE 17 20 9 11 1014.0 1014.1 0.0
11/01:00am 9.7 5.3 4.7 71 2.2 NE 17 24 9 13 1014.6 1014.7 0.0
11/12:30am 8.1 5.0 5.6 84 1.1 E 11 13 6 7 1015.7 1015.8 0.0
11/12:00am 8.5 5.3 5.1 79 1.5 ENE 11 13 6 7 1016.4 1016.5 0.0
 
Date/Time
EST
Temp
°C
App
Temp
°C
Dew
Point
°C
Rel
Hum
%
Delta-T
°C
Wind Press
QNH
hPa
Press
MSL
hPa
Rain since
9am
mm
Dir  Spd
km/h
Gust
km/h
Spd
kts
Gust
kts
10/11:30pm 7.7 4.6 5.7 87 0.9 ENE 11 13 6 7 1016.9 1017.0 0.0
10/11:00pm 8.0 4.5 5.6 85 1.1 NE 13 15 7 8 1017.6 1017.7 0.0
10/10:30pm 7.8 3.9 5.4 85 1.1 NE 15 17 8 9 1017.7 1017.8 0.0
10/10:00pm 7.5 4.0 5.5 87 0.9 NE 13 17 7 9 1017.8 1017.9 0.0

Other formats

Comma delimited format used in spreadsheet applications
http://www.bom.gov.au/fwo/IDV60801/IDV60801.95890.axf

JavaScript Object Notation format (JSON) in row-major order
http://www.bom.gov.au/fwo/IDV60801/IDV60801.95890.json

Data quality

Most of these data are generated automatically and are frequently updated. Quality checks on data are not normally performed. It is possible for incorrect values to appear. Refer to information at About Latest Weather Observations and please check the disclaimer before using these data.